Time;durP1;ratioP1;P1;durP2;ratioP2;P2;SDS_P1;SDS_P2;PMS_P1;PMS_P2;Temp;Humidity;BMP_temperature;BMP_pressure;BME280_temperature;BME280_humidity;BME280_pressure;Samples;Min_cycle;Max_cycle;Signal;HPM_P1;HPM_P2
2022/02/28 00:02:29;;;;;;;15.67;8.97;;;;;;;0.74;73.31;100835.09;5040607;28;20265;-73
2022/02/28 00:05:02;;;;;;;11.77;8.17;;;;;;;0.76;73.37;100828.69;5038060;28;20217;-73
2022/02/28 00:07:34;;;;;;;13.70;8.60;;;;;;;0.75;74.63;100832.28;5034057;28;20285;-73
2022/02/28 00:10:11;;;;;;;13.07;9.00;;;;;;;0.78;75.52;100833.84;5036865;28;20246;-73
2022/02/28 00:12:40;;;;;;;13.37;9.43;;;;;;;0.81;74.49;100833.59;5035944;28;20290;-74
2022/02/28 00:15:16;;;;;;;16.27;9.87;;;;;;;1.02;73.29;100834.44;5053816;23;20225;-73
2022/02/28 00:17:49;;;;;;;12.40;8.73;;;;;;;1.14;73.90;100836.03;5052957;23;20289;-73
2022/02/28 00:20:22;;;;;;;14.20;9.50;;;;;;;1.08;73.98;100830.44;5066640;23;20225;-73
2022/02/28 00:22:56;;;;;;;16.83;10.60;;;;;;;0.99;73.55;100826.78;5022907;28;20233;-74
2022/02/28 00:25:26;;;;;;;15.97;9.97;;;;;;;1.01;74.54;100819.56;5042115;28;20283;-73
2022/02/28 00:28:03;;;;;;;15.17;10.00;;;;;;;1.00;74.90;100815.25;5038789;28;20293;-73
2022/02/28 00:30:35;;;;;;;14.33;9.63;;;;;;;1.03;74.92;100822.06;5020403;28;20230;-74
2022/02/28 00:33:05;;;;;;;13.73;9.13;;;;;;;1.02;75.01;100826.53;5042410;28;20640;-73
2022/02/28 00:35:36;;;;;;;16.43;9.37;;;;;;;0.88;76.23;100824.22;5042394;28;20230;-73
2022/02/28 00:38:04;;;;;;;14.97;9.50;;;;;;;0.94;75.81;100828.13;5043352;28;20219;-73
2022/02/28 00:40:39;;;;;;;14.93;9.30;;;;;;;1.00;75.68;100825.81;5039073;28;20210;-74
2022/02/28 00:43:10;;;;;;;15.57;9.43;;;;;;;1.02;76.03;100818.63;5036042;28;20218;-73
2022/02/28 00:45:43;;;;;;;15.27;9.60;;;;;;;1.05;74.87;100817.50;5006892;28;20257;-73
2022/02/28 00:48:16;;;;;;;15.50;9.60;;;;;;;0.99;75.67;100816.22;5030605;28;20225;-73
2022/02/28 00:50:45;;;;;;;16.50;9.77;;;;;;;0.98;75.41;100803.97;5024104;28;20286;-73
2022/02/28 00:53:16;;;;;;;14.30;9.43;;;;;;;1.00;75.44;100799.41;5049813;23;20256;-74
2022/02/28 00:55:48;;;;;;;15.93;9.67;;;;;;;0.95;76.81;100798.13;5060644;28;20225;-73
2022/02/28 00:58:16;;;;;;;17.50;10.27;;;;;;;0.80;78.11;100797.63;5066938;28;20256;-73
2022/02/28 01:00:46;;;;;;;17.57;10.77;;;;;;;0.78;78.87;100799.56;5069177;28;20281;-73
2022/02/28 01:03:15;;;;;;;17.53;11.07;;;;;;;0.79;78.82;100804.69;5046478;28;20217;-73
2022/02/28 01:05:45;;;;;;;17.77;10.77;;;;;;;0.76;80.43;100796.19;5061314;28;20252;-76
2022/02/28 01:08:11;;;;;;;17.40;10.40;;;;;;;0.59;81.59;100789.72;5067256;28;20251;-73
2022/02/28 01:10:38;;;;;;;17.17;11.03;;;;;;;0.70;81.33;100797.53;5062518;28;20623;-73
2022/02/28 01:13:12;;;;;;;14.33;10.33;;;;;;;0.65;81.89;100793.66;5062256;28;20206;-73
2022/02/28 01:15:48;;;;;;;16.57;10.87;;;;;;;0.55;82.54;100801.47;5064620;28;20546;-74
2022/02/28 01:18:22;;;;;;;18.73;10.80;;;;;;;0.57;83.78;100794.25;5077549;23;20229;-73
2022/02/28 01:20:51;;;;;;;17.13;10.67;;;;;;;0.49;83.71;100796.72;5071827;23;20300;-75
2022/02/28 01:23:18;;;;;;;17.87;10.97;;;;;;;0.41;84.92;100800.00;5068541;28;20312;-72
2022/02/28 01:25:46;;;;;;;15.83;10.37;;;;;;;0.27;86.51;100788.91;5074012;23;20314;-73
2022/02/28 01:28:13;;;;;;;14.80;9.90;;;;;;;0.34;87.08;100795.31;5076311;28;20232;-74
2022/02/28 01:30:43;;;;;;;16.43;10.63;;;;;;;0.27;87.56;100788.91;5089087;28;20779;-73
2022/02/28 01:33:10;;;;;;;18.47;10.30;;;;;;;0.34;87.73;100782.16;5079263;22;20233;-73
2022/02/28 01:35:39;;;;;;;18.53;10.53;;;;;;;0.19;89.65;100781.59;5064910;28;20297;-73
2022/02/28 01:38:06;;;;;;;16.50;10.53;;;;;;;0.14;91.76;100781.13;5052798;28;20226;-78
2022/02/28 01:40:33;;;;;;;18.13;10.70;;;;;;;0.19;91.62;100776.31;5063829;23;20229;-73
2022/02/28 01:43:03;;;;;;;16.33;9.80;;;;;;;0.24;92.09;100782.06;5055432;23;20230;-73
2022/02/28 01:45:30;;;;;;;18.30;10.43;;;;;;;0.30;91.94;100778.94;5025580;28;20245;-73
2022/02/28 01:48:01;;;;;;;19.80;10.43;;;;;;;0.26;92.52;100771.41;5045012;23;20224;-73
2022/02/28 01:50:29;;;;;;;18.00;11.10;;;;;;;0.10;95.10;100774.44;5032523;28;20234;-73
2022/02/28 01:53:20;;;;;;;16.10;10.13;;;;;;;0.09;95.93;100766.69;5032675;28;20225;-73
2022/02/28 01:55:51;;;;;;;16.20;10.30;;;;;;;-0.07;99.72;100769.72;5053272;28;20293;-74
2022/02/28 01:58:18;;;;;;;18.47;10.80;;;;;;;-0.14;100.00;100766.72;5055243;23;20222;-73
2022/02/28 02:00:51;;;;;;;17.90;11.07;;;;;;;-0.19;100.00;100768.91;5042140;23;20226;-73
2022/02/28 02:03:20;;;;;;;19.50;10.83;;;;;;;-0.27;100.00;100773.94;5040266;28;20244;-73
2022/02/28 02:05:48;;;;;;;18.93;11.07;;;;;;;-0.26;100.00;100765.09;5024980;28;20234;-73
2022/02/28 02:08:27;;;;;;;17.27;10.60;;;;;;;-0.30;100.00;100768.09;5027886;28;20316;-73
2022/02/28 02:10:55;;;;;;;19.23;10.70;;;;;;;-0.28;100.00;100766.19;5044593;28;20309;-74
2022/02/28 02:13:27;;;;;;;19.93;10.90;;;;;;;-0.29;100.00;100757.44;5035283;28;20523;-73
2022/02/28 02:16:02;;;;;;;21.27;11.90;;;;;;;-0.46;100.00;100753.50;5025254;28;20222;-73
2022/02/28 02:18:32;;;;;;;19.30;11.70;;;;;;;-0.51;100.00;100746.94;5043048;28;20222;-73
2022/02/28 02:21:07;;;;;;;19.47;11.33;;;;;;;-0.56;100.00;100744.66;5055720;28;20233;-73
2022/02/28 02:23:34;;;;;;;20.57;11.53;;;;;;;-0.57;100.00;100743.00;5049510;28;20249;-73
2022/02/28 02:26:03;;;;;;;19.60;11.33;;;;;;;-0.53;100.00;100747.06;5037935;28;20238;-73
2022/02/28 02:28:36;;;;;;;18.67;11.20;;;;;;;-0.61;100.00;100746.84;5037627;28;20571;-73
2022/02/28 02:31:12;;;;;;;16.83;11.47;;;;;;;-0.67;100.00;100742.06;5043476;28;20233;-73
2022/02/28 02:33:42;;;;;;;17.30;11.37;;;;;;;-0.76;100.00;100734.88;5035034;28;20218;-73
2022/02/28 02:36:13;;;;;;;18.37;11.10;;;;;;;-0.85;100.00;100730.34;5029842;28;20234;-74
2022/02/28 02:38:45;;;;;;;17.70;10.93;;;;;;;-0.89;100.00;100724.47;5034977;28;20233;-73
2022/02/28 02:41:13;;;;;;;17.57;10.97;;;;;;;-1.00;100.00;100723.66;5044144;28;20232;-73
2022/02/28 02:43:40;;;;;;;18.10;10.87;;;;;;;-1.19;100.00;100711.09;5029164;28;20253;-74
2022/02/28 02:46:08;;;;;;;16.80;11.20;;;;;;;-1.27;100.00;100712.63;5043725;28;20245;-73
2022/02/28 02:48:35;;;;;;;18.20;11.07;;;;;;;-1.37;100.00;100701.97;5037750;28;20323;-73
2022/02/28 02:51:21;;;;;;;20.30;11.43;;;;;;;-1.25;100.00;100698.41;5043572;28;20226;-73
2022/02/28 02:53:53;;;;;;;19.20;11.07;;;;;;;-1.31;100.00;100704.16;5042945;28;20225;-74
2022/02/28 02:56:23;;;;;;;17.37;11.00;;;;;;;-1.27;100.00;100695.06;5059058;23;20312;-73
2022/02/28 02:58:58;;;;;;;18.13;10.87;;;;;;;-1.26;100.00;100701.16;5045119;28;21961;-73
2022/02/28 03:01:26;;;;;;;18.17;10.70;;;;;;;-1.11;100.00;100699.97;5050403;28;20578;-74
2022/02/28 03:03:59;;;;;;;17.20;10.87;;;;;;;-1.15;100.00;100698.53;5061923;23;20227;-73
2022/02/28 03:06:27;;;;;;;18.20;9.77;;;;;;;-1.15;100.00;100696.72;5068142;23;20221;-74
2022/02/28 03:09:04;;;;;;;17.07;10.70;;;;;;;-1.11;100.00;100697.31;5040868;28;20232;-74
2022/02/28 03:11:48;;;;;;;16.37;9.80;;;;;;;-1.14;100.00;100687.06;5073764;28;20518;-73
2022/02/28 03:14:19;;;;;;;18.17;10.47;;;;;;;-1.07;100.00;100690.88;5042969;28;20232;-74
2022/02/28 03:16:52;;;;;;;17.10;10.13;;;;;;;-0.95;100.00;100692.56;5084767;28;20661;-73
2022/02/28 03:19:27;;;;;;;15.50;10.17;;;;;;;-0.90;100.00;100693.88;5070775;28;20224;-73
2022/02/28 03:21:59;;;;;;;15.87;9.27;;;;;;;-0.89;100.00;100689.44;5054134;28;20240;-73
2022/02/28 03:24:32;;;;;;;16.93;9.77;;;;;;;-0.92;100.00;100697.56;5091614;23;20268;-73
2022/02/28 03:27:09;;;;;;;16.27;9.73;;;;;;;-0.79;100.00;100694.84;5092882;28;20250;-73
2022/02/28 03:29:46;;;;;;;13.37;8.63;;;;;;;-0.81;100.00;100699.38;5077998;28;20246;-74
2022/02/28 03:32:25;;;;;;;15.30;8.90;;;;;;;-0.66;100.00;100693.72;5083922;28;20251;-74
2022/02/28 03:34:56;;;;;;;15.17;9.07;;;;;;;-0.71;100.00;100697.69;5079686;23;20233;-73
2022/02/28 03:37:25;;;;;;;13.40;8.60;;;;;;;-0.59;100.00;100699.31;5071371;28;20217;-73
2022/02/28 03:39:53;;;;;;;12.10;8.43;;;;;;;-0.45;100.00;100691.16;5069700;23;20301;-72
2022/02/28 03:42:26;;;;;;;15.27;8.97;;;;;;;-0.50;100.00;100696.78;5026688;28;20226;-73
2022/02/28 03:45:09;;;;;;;13.70;8.43;;;;;;;-0.52;100.00;100692.63;4974294;28;20234;-74
2022/02/28 03:47:44;;;;;;;16.43;9.67;;;;;;;-0.60;100.00;100693.22;5027349;28;20253;-73
2022/02/28 03:50:48;;;;;;;16.07;9.03;;;;;;;-0.65;100.00;100695.38;5006488;28;20226;-73
2022/02/28 03:53:21;;;;;;;17.17;9.47;;;;;;;-0.56;100.00;100697.28;4997311;28;20223;-75
2022/02/28 03:55:49;;;;;;;13.83;9.33;;;;;;;-0.64;99.57;100690.97;5025301;28;20227;-76
2022/02/28 03:58:20;;;;;;;14.83;9.33;;;;;;;-0.55;98.95;100690.22;5030327;28;20290;-73
2022/02/28 04:00:55;;;;;;;14.87;9.27;;;;;;;-0.62;99.01;100697.78;5009976;28;20223;-73
2022/02/28 04:03:26;;;;;;;15.30;9.30;;;;;;;-0.51;98.58;100700.38;5010857;28;20219;-75
2022/02/28 04:05:56;;;;;;;16.60;9.40;;;;;;;-0.57;98.68;100703.53;5026518;28;20310;-73
2022/02/28 04:08:27;;;;;;;14.17;9.00;;;;;;;-0.52;99.13;100704.00;5009015;28;20269;-73
2022/02/28 04:11:04;;;;;;;14.10;9.13;;;;;;;-0.55;99.45;100693.69;5023569;28;20227;-73
2022/02/28 04:13:31;;;;;;;17.73;9.77;;;;;;;-0.58;100.00;100704.47;5023122;28;20199;-73
2022/02/28 04:16:00;;;;;;;16.87;9.67;;;;;;;-0.59;100.00;100707.22;5046007;23;20334;-73
2022/02/28 04:18:34;;;;;;;17.83;10.13;;;;;;;-0.74;100.00;100705.81;5028639;28;20641;-73
2022/02/28 04:21:18;;;;;;;15.93;9.43;;;;;;;-0.50;100.00;100709.13;5017750;28;20238;-74
2022/02/28 04:23:51;;;;;;;16.23;10.27;;;;;;;-0.38;98.30;100705.53;5046115;28;20217;-73
2022/02/28 04:26:20;;;;;;;18.43;10.30;;;;;;;-0.46;99.07;100702.66;5043816;28;20663;-73
2022/02/28 04:28:52;;;;;;;15.10;9.57;;;;;;;-0.43;99.03;100704.22;5014461;28;20279;-73
2022/02/28 04:31:19;;;;;;;14.97;10.03;;;;;;;-0.34;97.03;100711.38;5024986;28;20229;-73
2022/02/28 04:34:01;;;;;;;15.63;9.50;;;;;;;-0.36;96.50;100708.00;5030078;28;20245;-73
2022/02/28 04:36:32;;;;;;;17.00;10.00;;;;;;;-0.37;96.58;100707.16;5022575;28;20218;-73
2022/02/28 04:39:00;;;;;;;15.77;10.17;;;;;;;-0.38;94.47;100704.69;5030835;28;20214;-73
2022/02/28 04:41:32;;;;;;;14.27;9.47;;;;;;;-0.30;93.32;100710.16;5030348;28;20312;-73
2022/02/28 04:44:00;;;;;;;14.13;9.10;;;;;;;-0.36;93.37;100711.47;5027840;28;20214;-73
2022/02/28 04:46:31;;;;;;;15.30;9.90;;;;;;;-0.32;92.48;100718.16;5029198;28;20257;-73
2022/02/28 04:49:11;;;;;;;14.27;9.07;;;;;;;-0.25;90.53;100713.25;5026492;28;20229;-75
2022/02/28 04:51:55;;;;;;;13.80;9.43;;;;;;;-0.29;88.51;100717.94;5024761;28;20226;-73
2022/02/28 04:54:23;;;;;;;13.47;9.10;;;;;;;-0.29;88.72;100719.75;5054025;28;20220;-74
2022/02/28 04:56:53;;;;;;;15.53;9.47;;;;;;;-0.28;89.22;100719.59;5045561;28;20304;-73
2022/02/28 04:59:22;;;;;;;16.50;8.57;;;;;;;-0.28;88.14;100718.78;5045389;28;20206;-74
2022/02/28 05:01:53;;;;;;;13.23;8.50;;;;;;;-0.23;86.21;100700.78;5023424;28;20289;-73
2022/02/28 05:04:42;;;;;;;14.50;9.50;;;;;;;-0.24;85.98;100705.25;5005609;28;20265;-73
2022/02/28 05:07:12;;;;;;;13.33;8.80;;;;;;;-0.32;85.46;100712.06;5016459;28;20226;-73
2022/02/28 05:09:42;;;;;;;14.20;9.70;;;;;;;-0.23;83.48;100712.16;5026943;28;20229;-73
2022/02/28 05:12:15;;;;;;;13.40;8.83;;;;;;;-0.28;83.96;100716.97;5021988;28;20280;-73
2022/02/28 05:14:48;;;;;;;14.30;9.53;;;;;;;-0.32;83.75;100717.34;5032364;28;20221;-74
2022/02/28 05:17:21;;;;;;;14.40;9.63;;;;;;;-0.50;85.29;100723.13;5024645;28;20234;-73
2022/02/28 05:19:49;;;;;;;13.33;8.77;;;;;;;-0.53;85.47;100717.28;5024106;28;20292;-73
2022/02/28 05:22:18;;;;;;;11.93;8.80;;;;;;;-0.57;85.15;100715.84;5006517;28;20222;-73
2022/02/28 05:24:53;;;;;;;15.30;9.40;;;;;;;-0.57;84.55;100721.94;5028764;23;20267;-73
2022/02/28 05:27:48;;;;;;;15.60;10.10;;;;;;;-0.67;84.33;100720.16;5008736;28;20526;-73
2022/02/28 05:30:20;;;;;;;13.17;9.33;;;;;;;-0.69;84.87;100729.97;5044288;28;20661;-73
2022/02/28 05:32:54;;;;;;;14.07;9.00;;;;;;;-0.75;84.63;100722.56;5040767;28;20233;-73
2022/02/28 05:35:30;;;;;;;14.33;8.80;;;;;;;-0.81;84.53;100723.88;5041858;28;20236;-73
2022/02/28 05:38:13;;;;;;;13.70;8.83;;;;;;;-0.77;83.73;100730.56;5042665;28;20226;-73
2022/02/28 05:40:46;;;;;;;15.23;9.10;;;;;;;-0.90;84.69;100735.97;5038016;28;20301;-73
2022/02/28 05:43:13;;;;;;;14.33;8.67;;;;;;;-0.77;83.43;100745.53;5034623;28;20226;-73
2022/02/28 05:45:41;;;;;;;14.43;8.17;;;;;;;-0.81;82.41;100739.69;5028824;28;20226;-73
2022/02/28 05:48:36;;;;;;;14.97;8.90;;;;;;;-0.81;82.36;100752.81;5034083;28;20229;-74
2022/02/28 05:51:10;;;;;;;15.17;8.67;;;;;;;-0.75;81.95;100754.16;5036022;28;20236;-73
2022/02/28 05:53:36;;;;;;;14.53;8.60;;;;;;;-0.88;82.46;100744.56;5040225;28;20321;-73
2022/02/28 05:56:05;;;;;;;12.90;8.17;;;;;;;-0.90;82.98;100759.66;5029039;28;20231;-73
2022/02/28 05:58:31;;;;;;;12.50;8.27;;;;;;;-0.77;82.29;100748.16;5000679;28;20249;-73
2022/02/28 06:00:58;;;;;;;12.47;7.83;;;;;;;-0.65;79.79;100744.53;5039248;28;20233;-73
2022/02/28 06:03:31;;;;;;;12.80;8.47;;;;;;;-0.70;80.58;100744.09;5039855;28;20233;-73
2022/02/28 06:06:05;;;;;;;12.60;8.63;;;;;;;-0.77;81.79;100751.63;5039235;28;20313;-73
2022/02/28 06:08:33;;;;;;;16.30;9.47;;;;;;;-0.79;81.87;100744.81;5043635;28;20593;-73
2022/02/28 06:11:03;;;;;;;14.50;9.17;;;;;;;-0.61;80.30;100743.38;5038117;28;20629;-73
2022/02/28 06:13:31;;;;;;;13.30;8.47;;;;;;;-0.57;79.21;100734.28;5035659;28;20284;-73
2022/02/28 06:15:59;;;;;;;13.53;8.37;;;;;;;-0.48;79.23;100733.53;5040830;28;20238;-73
2022/02/28 06:18:33;;;;;;;12.37;8.20;;;;;;;-0.56;78.98;100722.78;5038768;28;20229;-73
2022/02/28 06:21:04;;;;;;;12.60;8.53;;;;;;;-0.54;78.83;100723.50;5041022;28;20245;-73
2022/02/28 06:23:33;;;;;;;11.40;8.17;;;;;;;-0.47;77.77;100725.50;5042899;28;20226;-73
2022/02/28 06:26:02;;;;;;;13.47;8.23;;;;;;;-0.33;77.86;100732.31;5042017;28;20234;-73
2022/02/28 06:28:32;;;;;;;11.47;8.03;;;;;;;-0.32;76.10;100741.88;5043954;28;20554;-73
2022/02/28 06:31:03;;;;;;;11.73;8.10;;;;;;;-0.28;76.36;100743.28;5050658;23;20233;-73
2022/02/28 06:33:33;;;;;;;12.57;8.43;;;;;;;-0.19;74.60;100747.84;5005478;28;20329;-73
2022/02/28 06:36:02;;;;;;;11.67;8.20;;;;;;;-0.15;74.39;100740.53;5025974;28;20237;-73
2022/02/28 06:38:37;;;;;;;14.13;8.47;;;;;;;0.00;74.01;100749.84;5015468;28;20250;-73
2022/02/28 06:41:16;;;;;;;13.53;8.43;;;;;;;0.14;73.43;100760.06;5025968;28;20711;-73
2022/02/28 06:43:45;;;;;;;14.17;8.53;;;;;;;0.22;72.81;100751.53;5025170;28;20265;-73
2022/02/28 06:46:29;;;;;;;13.80;8.67;;;;;;;0.28;73.24;100757.13;5025291;28;20250;-73
2022/02/28 06:48:56;;;;;;;12.57;8.23;;;;;;;0.20;73.66;100759.56;5023721;28;20230;-73
2022/02/28 06:51:32;;;;;;;13.30;8.53;;;;;;;0.31;71.99;100751.63;5053246;23;20264;-73
2022/02/28 06:53:59;;;;;;;13.27;9.17;;;;;;;0.42;72.51;100748.09;5052600;23;20230;-73
2022/02/28 06:56:31;;;;;;;12.10;7.53;;;;;;;0.46;72.08;100748.66;5009972;28;20258;-73
2022/02/28 06:59:04;;;;;;;12.97;8.53;;;;;;;0.52;70.81;100740.22;5025737;28;20548;-73
2022/02/28 07:01:40;;;;;;;13.80;8.37;;;;;;;0.62;70.95;100739.34;5052188;23;20229;-73
2022/02/28 07:04:30;;;;;;;11.70;7.33;;;;;;;0.58;70.06;100726.53;5023892;28;20513;-73
2022/02/28 07:06:58;;;;;;;12.60;7.93;;;;;;;0.64;70.23;100742.69;5043221;28;20229;-73
2022/02/28 07:09:31;;;;;;;11.17;7.57;;;;;;;0.64;69.66;100750.59;5041857;28;20202;-73
2022/02/28 07:11:59;;;;;;;11.30;7.73;;;;;;;0.82;68.97;100748.22;5042531;28;20233;-73
2022/02/28 07:14:28;;;;;;;12.97;8.40;;;;;;;0.89;67.99;100750.19;5059904;28;20714;-73
2022/02/28 07:16:58;;;;;;;11.90;8.20;;;;;;;0.99;67.57;100752.03;5061703;28;20644;-73
2022/02/28 07:19:26;;;;;;;13.70;7.83;;;;;;;1.04;65.99;100750.69;5061866;28;20256;-73
2022/02/28 07:21:56;;;;;;;13.00;7.93;;;;;;;1.10;65.20;100758.09;5064617;28;20260;-73
2022/02/28 07:24:24;;;;;;;11.97;8.27;;;;;;;1.04;66.84;100748.03;5061502;28;20304;-73
2022/02/28 07:26:52;;;;;;;12.20;7.70;;;;;;;1.14;63.29;100753.38;5062340;28;20219;-73
2022/02/28 07:29:22;;;;;;;12.00;7.93;;;;;;;1.13;62.99;100756.97;5064515;28;20235;-73
2022/02/28 07:31:48;;;;;;;10.20;7.20;;;;;;;1.19;62.02;100754.66;5061481;28;20690;-73
2022/02/28 07:34:16;;;;;;;6.93;5.17;;;;;;;1.44;56.11;100756.00;5063584;28;20287;-73
2022/02/28 07:36:46;;;;;;;7.70;5.53;;;;;;;1.60;56.21;100752.84;5055219;28;20245;-74
2022/02/28 07:39:17;;;;;;;8.33;5.17;;;;;;;1.81;55.23;100750.13;5035449;28;20233;-74
2022/02/28 07:41:48;;;;;;;7.97;5.23;;;;;;;1.80;56.11;100762.50;5056899;28;20233;-73
2022/02/28 07:44:18;;;;;;;7.67;4.97;;;;;;;1.85;54.12;100757.66;5067207;22;20292;-73
2022/02/28 07:46:59;;;;;;;10.00;5.87;;;;;;;1.84;54.16;100757.78;5020511;28;20264;-73
2022/02/28 07:49:35;;;;;;;7.00;5.00;;;;;;;1.82;53.29;100760.53;5034422;28;20368;-73
2022/02/28 07:52:09;;;;;;;7.53;5.00;;;;;;;1.85;51.61;100752.38;5037645;28;20257;-74
2022/02/28 07:54:37;;;;;;;8.33;5.60;;;;;;;1.83;53.47;100764.03;5023816;28;20489;-73
2022/02/28 07:57:05;;;;;;;7.20;5.10;;;;;;;1.77;52.75;100749.56;5062653;23;20321;-73
2022/02/28 07:59:33;;;;;;;7.13;5.00;;;;;;;1.88;51.42;100753.88;5039889;28;20285;-76
2022/02/28 08:02:08;;;;;;;6.33;4.33;;;;;;;1.97;49.52;100745.13;5048536;28;20218;-74
2022/02/28 08:04:46;;;;;;;8.00;5.00;;;;;;;2.25;50.85;100746.13;5045638;23;20245;-73
2022/02/28 08:07:14;;;;;;;6.90;4.97;;;;;;;2.46;51.82;100749.47;5044031;28;20239;-76
2022/02/28 08:09:47;;;;;;;8.43;4.80;;;;;;;2.50;50.55;100750.84;5047306;28;20222;-74
2022/02/28 08:12:15;;;;;;;6.50;3.57;;;;;;;2.35;48.41;100739.88;5041472;28;20229;-74
2022/02/28 08:14:43;;;;;;;6.07;4.40;;;;;;;2.45;46.87;100739.84;5049087;28;20218;-73
2022/02/28 08:17:14;;;;;;;5.00;4.03;;;;;;;2.57;46.72;100755.44;5047776;28;20218;-73
2022/02/28 08:19:59;;;;;;;6.90;4.70;;;;;;;2.27;47.16;100746.81;5060293;22;20256;-73
2022/02/28 08:22:30;;;;;;;7.03;4.50;;;;;;;2.25;48.20;100752.25;5063958;22;20246;-73
2022/02/28 08:25:30;;;;;;;5.80;4.00;;;;;;;1.81;48.70;100753.59;5023049;28;20233;-73
2022/02/28 08:28:47;;;;;;;6.93;4.90;;;;;;;2.29;48.67;100751.00;5051880;23;20298;-73
2022/02/28 08:31:35;;;;;;;7.37;4.70;;;;;;;2.16;48.42;100742.50;5032469;28;20232;-73
2022/02/28 08:34:06;;;;;;;7.03;4.30;;;;;;;2.32;47.19;100753.38;5031037;28;20260;-73
2022/02/28 08:36:37;;;;;;;7.57;5.03;;;;;;;2.16;49.38;100753.91;5036526;28;20233;-73
2022/02/28 08:39:40;;;;;;;7.10;4.70;;;;;;;1.97;49.11;100747.78;5054867;23;20232;-73
2022/02/28 08:42:50;;;;;;;8.07;4.90;;;;;;;1.89;51.55;100751.13;5071169;23;20286;-73
2022/02/28 08:45:33;;;;;;;9.57;4.90;;;;;;;1.65;51.75;100745.34;5042961;28;20218;-73
2022/02/28 08:48:26;;;;;;;7.80;5.67;;;;;;;1.87;53.31;100766.25;5047322;28;20202;-73
2022/02/28 08:51:02;;;;;;;7.73;4.80;;;;;;;1.94;49.07;100753.34;5059283;23;20311;-73
2022/02/28 08:53:51;;;;;;;7.00;5.23;;;;;;;1.87;48.37;100750.41;5050718;28;20206;-76
2022/02/28 08:56:33;;;;;;;9.20;5.13;;;;;;;2.06;48.73;100747.78;5045342;28;20221;-73
2022/02/28 08:59:24;;;;;;;6.60;5.00;;;;;;;2.16;49.38;100758.38;5055877;28;20208;-73
2022/02/28 09:02:03;;;;;;;9.73;6.10;;;;;;;2.25;49.80;100748.75;5097361;23;20228;-72
2022/02/28 09:05:21;;;;;;;8.03;4.90;;;;;;;2.27;50.29;100749.47;4996534;28;20205;-73
2022/02/28 09:07:53;;;;;;;7.70;5.20;;;;;;;2.33;49.88;100741.84;5032732;28;20245;-73
2022/02/28 09:10:37;;;;;;;8.67;5.43;;;;;;;2.33;51.17;100747.13;5020731;28;20238;-73
2022/02/28 09:13:10;;;;;;;6.00;4.53;;;;;;;2.36;49.91;100746.84;5034106;28;20295;-73
2022/02/28 09:16:02;;;;;;;8.37;5.40;;;;;;;2.46;47.82;100752.94;5085388;22;20300;-74
2022/02/28 09:18:33;;;;;;;7.23;4.80;;;;;;;2.39;48.93;100757.13;5078448;28;20225;-73
2022/02/28 09:21:32;;;;;;;7.77;4.93;;;;;;;2.31;49.41;100754.34;5091079;28;20224;-73
2022/02/28 09:24:12;;;;;;;8.77;5.20;;;;;;;2.28;49.94;100749.34;5096322;22;20236;-72
2022/02/28 09:26:53;;;;;;;8.03;5.60;;;;;;;2.50;49.14;100761.44;5071964;28;20233;-73
2022/02/28 09:29:48;;;;;;;7.10;5.30;;;;;;;2.66;48.80;100751.09;5094535;22;20220;-74
2022/02/28 09:32:27;;;;;;;9.33;6.27;;;;;;;2.58;49.38;100751.81;5086960;28;20623;-73
2022/02/28 09:34:56;;;;;;;7.70;5.57;;;;;;;2.43;48.67;100749.72;5097558;22;20200;-71
2022/02/28 09:37:30;;;;;;;9.23;5.33;;;;;;;2.48;47.39;100752.78;5080911;23;20224;-73
2022/02/28 09:39:58;;;;;;;9.70;5.73;;;;;;;2.46;47.92;100757.41;5055491;23;20223;-73
2022/02/28 09:42:58;;;;;;;8.60;5.60;;;;;;;2.51;48.70;100769.25;5042361;28;20233;-73
2022/02/28 09:45:50;;;;;;;7.53;5.97;;;;;;;2.49;49.39;100763.25;5039423;28;20252;-72
2022/02/28 09:48:39;;;;;;;8.70;6.03;;;;;;;2.63;48.63;100768.09;5046596;28;20309;-73
2022/02/28 09:51:45;;;;;;;9.47;5.70;;;;;;;2.71;49.42;100774.53;5048711;23;20244;-73
2022/02/28 09:54:32;;;;;;;7.73;5.50;;;;;;;3.14;46.94;100761.59;5048295;23;20235;-73
2022/02/28 09:57:36;;;;;;;8.13;5.00;;;;;;;2.97;47.34;100757.88;5057803;23;20240;-73
2022/02/28 10:00:27;;;;;;;7.30;5.20;;;;;;;3.22;46.05;100777.56;5018276;28;20234;-73
2022/02/28 10:03:22;;;;;;;28.43;19.47;;;;;;;3.16;46.17;100764.94;5063870;23;20213;-73
2022/02/28 10:06:05;;;;;;;10.03;6.53;;;;;;;3.42;45.84;100773.88;5045237;22;20238;-73
2022/02/28 10:08:45;;;;;;;9.63;7.30;;;;;;;3.74;45.17;100762.84;5036024;28;20206;-74
2022/02/28 10:11:39;;;;;;;7.57;5.97;;;;;;;3.94;44.50;100768.88;5055543;23;20198;-73
2022/02/28 10:14:16;;;;;;;7.77;5.50;;;;;;;4.22;43.57;100767.00;5074666;22;20221;-73
2022/02/28 10:17:05;;;;;;;8.93;4.97;;;;;;;4.18;43.11;100762.97;5080093;22;20199;-73
2022/02/28 10:20:21;;;;;;;9.33;5.20;;;;;;;3.81;44.28;100745.38;5043929;23;20230;-73
2022/02/28 10:23:33;;;;;;;8.03;5.30;;;;;;;4.02;44.03;100744.25;5078103;23;20229;-76
2022/02/28 10:26:24;;;;;;;7.50;5.47;;;;;;;3.45;45.12;100757.69;5051147;23;20293;-73
2022/02/28 10:29:37;;;;;;;8.00;4.97;;;;;;;3.36;44.64;100753.25;5051948;28;20263;-72
2022/02/28 10:32:50;;;;;;;7.40;5.47;;;;;;;3.57;44.22;100763.63;5059368;23;20221;-73
2022/02/28 10:39:00;;;;;;;7.73;4.83;;;;;;;2.93;43.76;100750.38;5072657;28;20235;-72
2022/02/28 10:41:53;;;;;;;8.77;5.47;;;;;;;2.65;44.85;100745.00;5065559;23;20222;-72
2022/02/28 10:44:39;;;;;;;7.33;4.97;;;;;;;2.71;45.61;100753.34;5068385;22;20264;-72
2022/02/28 10:47:46;;;;;;;13.93;9.53;;;;;;;2.83;45.79;100760.13;5039014;23;20222;-72
2022/02/28 10:50:20;;;;;;;7.10;4.20;;;;;;;2.51;46.91;100757.81;5075153;23;20257;-72
2022/02/28 10:53:13;;;;;;;6.50;5.07;;;;;;;2.62;46.86;100757.66;5068170;23;20720;-73
2022/02/28 10:55:54;;;;;;;8.43;5.43;;;;;;;2.73;47.60;100752.22;5092120;23;20236;-73
2022/02/28 10:58:45;;;;;;;8.97;5.40;;;;;;;2.51;47.90;100748.09;5101601;23;20287;-73
2022/02/28 11:01:14;;;;;;;8.50;5.87;;;;;;;2.63;48.07;100744.28;5089356;23;20232;-73
2022/02/28 11:04:05;;;;;;;9.87;6.33;;;;;;;2.51;48.48;100752.53;5078194;22;20223;-72
2022/02/28 11:06:39;;;;;;;9.43;6.23;;;;;;;2.70;47.56;100746.38;5053204;28;20276;-73
2022/02/28 11:09:34;;;;;;;9.70;6.63;;;;;;;2.79;47.16;100746.38;5077536;23;20233;-72
2022/02/28 11:12:42;;;;;;;11.13;6.70;;;;;;;2.88;46.66;100742.84;5078254;23;20233;-72
2022/02/28 11:15:18;;;;;;;9.30;6.57;;;;;;;2.96;46.28;100744.78;5076514;23;20241;-72
2022/02/28 11:17:54;;;;;;;10.87;6.70;;;;;;;2.95;46.14;100741.28;5035797;28;20230;-73
2022/02/28 11:20:30;;;;;;;9.30;6.77;;;;;;;3.02;46.48;100749.50;5075553;23;20239;-72
2022/02/28 11:23:07;;;;;;;10.33;7.07;;;;;;;3.29;46.15;100740.75;5077220;23;20227;-73
2022/02/28 11:25:40;;;;;;;9.87;7.60;;;;;;;3.48;45.23;100744.16;5082419;23;20232;-73
2022/02/28 11:28:25;;;;;;;11.07;7.37;;;;;;;3.64;44.24;100748.81;5057918;23;20229;-73
2022/02/28 11:31:08;;;;;;;9.53;7.37;;;;;;;3.71;44.94;100743.75;5085714;22;20208;-73
2022/02/28 11:33:39;;;;;;;9.53;7.40;;;;;;;4.09;43.61;100745.31;5097781;23;20258;-73
2022/02/28 11:36:18;;;;;;;12.50;7.40;;;;;;;4.28;43.79;100746.03;5081089;23;20338;-73
2022/02/28 11:38:47;;;;;;;11.37;8.30;;;;;;;4.14;43.74;100733.28;5092671;28;20209;-73
2022/02/28 11:41:18;;;;;;;11.93;8.37;;;;;;;4.11;44.12;100741.53;5092210;28;20258;-73
2022/02/28 11:43:52;;;;;;;11.83;8.53;;;;;;;4.00;43.95;100736.47;5071220;23;20222;-73
2022/02/28 11:46:30;;;;;;;11.10;8.73;;;;;;;3.88;45.17;100738.47;5053711;28;20247;-73
2022/02/28 11:49:21;;;;;;;12.73;8.03;;;;;;;3.86;44.97;100735.16;5079488;23;20240;-73
2022/02/28 11:52:38;;;;;;;10.87;7.87;;;;;;;3.89;44.44;100740.16;5073555;23;20228;-73
2022/02/28 11:55:12;;;;;;;12.00;7.90;;;;;;;4.28;43.64;100730.09;5099512;22;20232;-73
2022/02/28 11:57:55;;;;;;;12.43;8.53;;;;;;;4.51;43.08;100735.75;5041229;23;20237;-74
2022/02/28 12:00:47;;;;;;;9.50;7.37;;;;;;;4.17;42.99;100726.81;5053071;28;20622;-74
2022/02/28 12:03:24;;;;;;;11.80;7.90;;;;;;;4.74;42.61;100728.13;5066165;28;20228;-73
2022/02/28 12:05:51;;;;;;;14.50;8.87;;;;;;;5.16;41.78;100723.75;5065750;28;20288;-73
2022/02/28 12:08:35;;;;;;;12.03;8.03;;;;;;;4.62;42.60;100734.69;5026231;28;20252;-73